createdAt,value
2023-12-14T00:00:04.470Z,1000.57
2023-12-14T00:01:04.676Z,1000.59
2023-12-14T00:02:04.484Z,1000.60
2023-12-14T00:03:04.456Z,1000.61
2023-12-14T00:04:04.611Z,1000.58
2023-12-14T00:05:04.483Z,1000.62
2023-12-14T00:06:04.639Z,1000.58
2023-12-14T00:07:04.384Z,1000.63
2023-12-14T00:08:04.609Z,1000.59
2023-12-14T00:09:04.295Z,1000.58
2023-12-14T00:10:04.330Z,1000.64
2023-12-14T00:11:04.447Z,1000.65
2023-12-14T00:12:04.362Z,1000.65
2023-12-14T00:13:04.273Z,1000.66
2023-12-14T00:14:04.338Z,1000.65
2023-12-14T00:15:05.813Z,1000.67
2023-12-14T00:16:04.321Z,1000.71
2023-12-14T00:17:04.368Z,1000.74
2023-12-14T00:18:04.222Z,1000.72
2023-12-14T00:19:04.353Z,1000.72
2023-12-14T00:20:04.202Z,1000.74
2023-12-14T00:21:04.188Z,1000.75
2023-12-14T00:22:04.186Z,1000.76
2023-12-14T00:23:04.179Z,1000.78
2023-12-14T00:24:04.214Z,1000.81
2023-12-14T00:25:04.110Z,1000.85
2023-12-14T00:26:04.158Z,1000.85
2023-12-14T00:27:04.580Z,1000.85
2023-12-14T00:28:04.192Z,1000.89
2023-12-14T00:29:04.232Z,1000.87
2023-12-14T00:30:04.076Z,1000.90
2023-12-14T00:31:04.125Z,1000.91
2023-12-14T00:32:04.276Z,1000.94
2023-12-14T00:33:04.067Z,1000.96
2023-12-14T00:34:04.190Z,1000.98
2023-12-14T00:35:04.203Z,1000.97
2023-12-14T00:36:04.043Z,1001.00
2023-12-14T00:37:04.014Z,1001.05
2023-12-14T00:38:04.045Z,1001.07
2023-12-14T00:39:04.314Z,1001.11
2023-12-14T00:40:04.113Z,1001.15
2023-12-14T00:41:04.063Z,1001.14
2023-12-14T00:42:04.029Z,1001.19
2023-12-14T00:43:04.160Z,1001.20
2023-12-14T00:44:04.035Z,1001.21
2023-12-14T00:45:03.957Z,1001.20
2023-12-14T00:46:03.928Z,1001.24
2023-12-14T00:47:04.062Z,1001.28
2023-12-14T00:48:04.051Z,1001.28
2023-12-14T00:49:04.024Z,1001.31
2023-12-14T00:50:03.987Z,1001.35
2023-12-14T00:51:03.878Z,1001.34
2023-12-14T00:52:04.001Z,1001.35
2023-12-14T00:53:03.881Z,1001.35
2023-12-14T00:54:03.815Z,1001.34
2023-12-14T00:55:03.891Z,1001.37
2023-12-14T00:56:03.866Z,1001.37
2023-12-14T00:57:04.067Z,1001.40
2023-12-14T00:58:03.761Z,1001.41
2023-12-14T00:59:03.848Z,1001.39
2023-12-14T01:00:03.850Z,1001.39
2023-12-14T01:01:03.787Z,1001.38
2023-12-14T01:02:03.861Z,1001.40
2023-12-14T01:03:04.054Z,1001.37
2023-12-14T01:04:04.054Z,1001.39
2023-12-14T01:05:04.525Z,1001.41
2023-12-14T01:06:03.878Z,1001.44
2023-12-14T01:07:03.903Z,1001.46
2023-12-14T01:08:03.855Z,1001.49
2023-12-14T01:09:04.085Z,1001.52
2023-12-14T01:10:03.859Z,1001.55
2023-12-14T01:11:04.178Z,1001.58
2023-12-14T01:12:03.642Z,1001.58
2023-12-14T01:13:03.589Z,1001.60
2023-12-14T01:14:03.663Z,1001.65
2023-12-14T01:15:03.618Z,1001.61
2023-12-14T01:16:03.598Z,1001.66
2023-12-14T01:17:03.606Z,1001.67
2023-12-14T01:18:03.712Z,1001.69
2023-12-14T01:19:03.862Z,1001.76
2023-12-14T01:20:03.591Z,1001.73
2023-12-14T01:21:03.546Z,1001.77
2023-12-14T01:22:03.554Z,1001.80
2023-12-14T01:23:03.570Z,1001.76
2023-12-14T01:24:03.493Z,1001.82
2023-12-14T01:25:03.512Z,1001.86
2023-12-14T01:26:03.599Z,1001.83
2023-12-14T01:27:03.486Z,1001.86
2023-12-14T01:28:03.560Z,1001.89
2023-12-14T01:29:03.468Z,1001.90
2023-12-14T01:30:03.477Z,1001.90
2023-12-14T01:31:03.460Z,1001.91
2023-12-14T01:32:03.457Z,1001.93
2023-12-14T01:33:03.489Z,1001.97
2023-12-14T01:34:09.805Z,1001.99
2023-12-14T01:35:03.504Z,1001.99
2023-12-14T01:36:03.468Z,1002.04
2023-12-14T01:37:03.406Z,1002.02
2023-12-14T01:38:03.475Z,1002.06
2023-12-14T01:39:03.357Z,1002.06
2023-12-14T01:40:03.382Z,1002.05
2023-12-14T01:41:03.376Z,1002.08
2023-12-14T01:42:03.353Z,1002.08
2023-12-14T01:43:03.300Z,1002.07
2023-12-14T01:44:03.399Z,1002.09
2023-12-14T01:45:03.328Z,1002.10
2023-12-14T01:46:03.311Z,1002.14
2023-12-14T01:47:03.276Z,1002.09
2023-12-14T01:48:03.366Z,1002.16
2023-12-14T01:49:03.365Z,1002.14
2023-12-14T01:50:03.392Z,1002.14
2023-12-14T01:51:03.264Z,1002.18
2023-12-14T01:52:03.351Z,1002.18
2023-12-14T01:53:03.335Z,1002.17
2023-12-14T01:54:03.253Z,1002.22
2023-12-14T01:55:03.196Z,1002.21
2023-12-14T01:56:03.172Z,1002.21
2023-12-14T01:57:03.145Z,1002.23
2023-12-14T01:58:03.207Z,1002.28
2023-12-14T01:59:03.307Z,1002.25
2023-12-14T02:00:03.114Z,1002.23
2023-12-14T02:01:03.171Z,1002.24
2023-12-14T02:02:03.083Z,1002.30
2023-12-14T02:03:03.045Z,1002.27
2023-12-14T02:04:03.128Z,1002.32
2023-12-14T02:05:03.069Z,1002.33
2023-12-14T02:06:03.124Z,1002.34
2023-12-14T02:07:03.092Z,1002.32
2023-12-14T02:08:03.151Z,1002.33
2023-12-14T02:09:03.012Z,1002.39
2023-12-14T02:10:03.025Z,1002.42
2023-12-14T02:11:03.042Z,1002.42
2023-12-14T02:12:03.025Z,1002.42
2023-12-14T02:13:02.999Z,1002.39
2023-12-14T02:14:03.008Z,1002.39
2023-12-14T02:15:02.956Z,1002.43
2023-12-14T02:16:02.948Z,1002.43
2023-12-14T02:17:03.038Z,1002.45
2023-12-14T02:18:03.034Z,1002.41
2023-12-14T02:19:03.013Z,1002.46
2023-12-14T02:20:03.049Z,1002.45
2023-12-14T02:21:02.950Z,1002.42
2023-12-14T02:22:02.853Z,1002.41
2023-12-14T02:23:02.981Z,1002.43
2023-12-14T02:24:03.051Z,1002.42
2023-12-14T02:25:02.874Z,1002.42
2023-12-14T02:26:02.879Z,1002.42
2023-12-14T02:27:04.119Z,1002.41
2023-12-14T02:28:02.871Z,1002.40
2023-12-14T02:29:02.853Z,1002.45
2023-12-14T02:30:02.804Z,1002.41
2023-12-14T02:31:02.867Z,1002.44
2023-12-14T02:32:02.818Z,1002.42
2023-12-14T02:33:02.833Z,1002.45
2023-12-14T02:34:02.845Z,1002.45
2023-12-14T02:35:02.864Z,1002.45
2023-12-14T02:36:02.791Z,1002.48
2023-12-14T02:37:02.713Z,1002.49
2023-12-14T02:38:02.840Z,1002.53
2023-12-14T02:39:02.674Z,1002.48
2023-12-14T02:40:02.707Z,1002.52
2023-12-14T02:41:02.781Z,1002.54
2023-12-14T02:42:02.655Z,1002.55
2023-12-14T02:43:02.656Z,1002.60
2023-12-14T02:44:02.676Z,1002.57
2023-12-14T02:45:02.636Z,1002.57
2023-12-14T02:46:02.685Z,1002.58
2023-12-14T02:47:02.617Z,1002.59
2023-12-14T02:48:02.947Z,1002.58
2023-12-14T02:49:02.582Z,1002.60
2023-12-14T02:50:02.687Z,1002.60
2023-12-14T02:51:02.628Z,1002.62
2023-12-14T02:52:02.598Z,1002.57
2023-12-14T02:53:02.620Z,1002.60
2023-12-14T02:54:02.542Z,1002.60
2023-12-14T02:55:02.547Z,1002.62
2023-12-14T02:56:02.491Z,1002.64
2023-12-14T02:57:02.518Z,1002.65
2023-12-14T02:58:02.519Z,1002.65
2023-12-14T02:59:02.474Z,1002.66
2023-12-14T03:00:02.489Z,1002.70
2023-12-14T03:01:02.452Z,1002.73
2023-12-14T03:02:02.493Z,1002.78
2023-12-14T03:03:02.479Z,1002.76
2023-12-14T03:04:02.486Z,1002.79
2023-12-14T03:05:02.561Z,1002.77
2023-12-14T03:06:02.373Z,1002.79
2023-12-14T03:07:02.423Z,1002.81
2023-12-14T03:08:02.382Z,1002.80
2023-12-14T03:09:02.420Z,1002.79
2023-12-14T03:10:02.470Z,1002.85
2023-12-14T03:11:02.473Z,1002.83
2023-12-14T03:12:02.372Z,1002.81
2023-12-14T03:13:02.390Z,1002.86
2023-12-14T03:14:02.306Z,1002.85
2023-12-14T03:15:02.361Z,1002.86
2023-12-14T03:16:02.269Z,1002.90
2023-12-14T03:17:02.349Z,1002.89
2023-12-14T03:18:02.427Z,1002.91
2023-12-14T03:19:02.323Z,1002.90
2023-12-14T03:20:02.336Z,1002.94
2023-12-14T03:21:02.246Z,1002.98
2023-12-14T03:22:02.207Z,1002.97
2023-12-14T03:23:02.224Z,1003.03
2023-12-14T03:24:02.238Z,1003.03
2023-12-14T03:25:02.138Z,1003.06
2023-12-14T03:26:02.267Z,1003.08
2023-12-14T03:27:02.174Z,1003.07
2023-12-14T03:28:02.163Z,1003.07
2023-12-14T03:29:02.225Z,1003.09
2023-12-14T03:30:02.150Z,1003.13
2023-12-14T03:31:02.160Z,1003.13
2023-12-14T03:32:02.214Z,1003.15
2023-12-14T03:33:02.150Z,1003.16
2023-12-14T03:34:02.196Z,1003.19
2023-12-14T03:35:02.102Z,1003.20
2023-12-14T03:36:02.063Z,1003.24
2023-12-14T03:37:02.243Z,1003.22
2023-12-14T03:38:02.085Z,1003.24
2023-12-14T03:39:02.024Z,1003.26
2023-12-14T03:40:02.043Z,1003.28
2023-12-14T03:41:02.014Z,1003.28
2023-12-14T03:42:02.037Z,1003.29
2023-12-14T03:43:02.071Z,1003.28
2023-12-14T03:44:02.035Z,1003.30
2023-12-14T03:45:01.999Z,1003.34
2023-12-14T03:46:02.017Z,1003.34
2023-12-14T03:47:01.971Z,1003.40
2023-12-14T03:48:01.969Z,1003.37
2023-12-14T03:49:01.909Z,1003.36
2023-12-14T03:50:02.018Z,1003.35
2023-12-14T03:51:01.902Z,1003.38
2023-12-14T03:52:01.866Z,1003.41
2023-12-14T03:53:01.896Z,1003.42
2023-12-14T03:54:01.991Z,1003.40
2023-12-14T03:55:01.888Z,1003.45
2023-12-14T03:56:01.893Z,1003.44
2023-12-14T03:57:01.861Z,1003.47
2023-12-14T03:58:01.880Z,1003.47
2023-12-14T03:59:01.879Z,1003.49
2023-12-14T04:00:01.911Z,1003.47
2023-12-14T04:01:01.811Z,1003.48
2023-12-14T04:02:01.916Z,1003.50
2023-12-14T04:03:01.944Z,1003.53
2023-12-14T04:04:01.824Z,1003.53
2023-12-14T04:05:01.915Z,1003.53
2023-12-14T04:06:01.852Z,1003.58
2023-12-14T04:07:01.750Z,1003.56
2023-12-14T04:08:01.785Z,1003.59
2023-12-14T04:09:01.799Z,1003.59
2023-12-14T04:10:01.750Z,1003.60
2023-12-14T04:11:01.762Z,1003.64
2023-12-14T04:12:01.649Z,1003.64
2023-12-14T04:13:01.653Z,1003.65
2023-12-14T04:14:01.723Z,1003.64
2023-12-14T04:15:01.647Z,1003.67
2023-12-14T04:16:01.671Z,1003.64
2023-12-14T04:17:01.720Z,1003.65
2023-12-14T04:18:01.726Z,1003.64
2023-12-14T04:19:01.646Z,1003.67
2023-12-14T04:20:01.699Z,1003.67
2023-12-14T04:21:01.644Z,1003.66
2023-12-14T04:22:01.658Z,1003.69
2023-12-14T04:23:01.570Z,1003.76
2023-12-14T04:24:01.550Z,1003.73
2023-12-14T04:25:01.529Z,1003.75
2023-12-14T04:26:01.569Z,1003.81
2023-12-14T04:27:01.551Z,1003.81
2023-12-14T04:28:01.504Z,1003.78
2023-12-14T04:29:01.523Z,1003.86
2023-12-14T04:30:01.593Z,1003.87
2023-12-14T04:31:01.506Z,1003.87
2023-12-14T04:32:01.497Z,1003.89
2023-12-14T04:33:01.469Z,1003.89
2023-12-14T04:34:01.457Z,1003.89
2023-12-14T04:35:01.457Z,1003.90
2023-12-14T04:36:01.392Z,1003.95
2023-12-14T04:37:01.367Z,1004.00
2023-12-14T04:38:01.409Z,1003.98
2023-12-14T04:39:01.483Z,1004.00
2023-12-14T04:40:01.380Z,1004.05
2023-12-14T04:41:01.411Z,1004.05
2023-12-14T04:42:01.352Z,1004.09
2023-12-14T04:43:01.351Z,1004.12
2023-12-14T04:44:01.506Z,1004.14
2023-12-14T04:45:01.360Z,1004.16
2023-12-14T04:46:01.353Z,1004.18
2023-12-14T04:47:01.311Z,1004.21
2023-12-14T04:48:01.994Z,1004.21
2023-12-14T04:49:01.298Z,1004.22
2023-12-14T04:50:01.279Z,1004.24
2023-12-14T04:51:01.234Z,1004.25
2023-12-14T04:52:01.309Z,1004.26
2023-12-14T04:53:01.272Z,1004.27
2023-12-14T04:54:01.316Z,1004.27
2023-12-14T04:55:01.181Z,1004.24
2023-12-14T04:56:01.231Z,1004.28
2023-12-14T04:57:01.159Z,1004.34
2023-12-14T04:58:01.166Z,1004.31
2023-12-14T04:59:01.435Z,1004.29
2023-12-14T05:00:01.242Z,1004.31
2023-12-14T05:01:01.155Z,1004.32
2023-12-14T05:02:01.147Z,1004.33
2023-12-14T05:03:01.139Z,1004.28
2023-12-14T05:04:01.187Z,1004.26
2023-12-14T05:05:01.153Z,1004.30
2023-12-14T05:06:01.161Z,1004.31
2023-12-14T05:07:01.161Z,1004.35
2023-12-14T05:08:01.207Z,1004.32
2023-12-14T05:09:01.050Z,1004.34
2023-12-14T05:10:01.177Z,1004.36
2023-12-14T05:11:01.059Z,1004.40
2023-12-14T05:12:01.005Z,1004.40
2023-12-14T05:13:01.028Z,1004.41
2023-12-14T05:14:01.052Z,1004.43
2023-12-14T05:15:01.026Z,1004.44
2023-12-14T05:16:00.968Z,1004.46
2023-12-14T05:17:01.014Z,1004.50
2023-12-14T05:18:01.031Z,1004.52
2023-12-14T05:19:00.951Z,1004.50
2023-12-14T05:20:01.248Z,1004.52
2023-12-14T05:21:00.967Z,1004.52
2023-12-14T05:22:00.924Z,1004.53
2023-12-14T05:23:01.021Z,1004.54
2023-12-14T05:24:00.956Z,1004.54
2023-12-14T05:25:00.981Z,1004.58
2023-12-14T05:26:00.873Z,1004.60
2023-12-14T05:27:00.880Z,1004.62
2023-12-14T05:28:00.873Z,1004.63
2023-12-14T05:29:00.882Z,1004.69
2023-12-14T05:30:00.893Z,1004.69
2023-12-14T05:31:00.874Z,1004.69
2023-12-14T05:32:00.892Z,1004.74
2023-12-14T05:33:00.892Z,1004.76
2023-12-14T05:34:00.867Z,1004.79
2023-12-14T05:35:01.091Z,1004.77
2023-12-14T05:36:00.772Z,1004.82
2023-12-14T05:37:00.737Z,1004.82
2023-12-14T05:38:00.918Z,1004.85
2023-12-14T05:39:00.745Z,1004.89
2023-12-14T05:40:01.112Z,1004.90
2023-12-14T05:41:00.736Z,1004.96
2023-12-14T05:42:00.750Z,1004.96
2023-12-14T05:43:00.739Z,1005.04
2023-12-14T05:44:00.731Z,1005.09
2023-12-14T05:45:00.743Z,1005.07
2023-12-14T05:46:00.739Z,1005.10
2023-12-14T05:47:00.637Z,1005.13
2023-12-14T05:48:00.795Z,1005.18
2023-12-14T05:49:00.708Z,1005.17
2023-12-14T05:50:00.741Z,1005.22
2023-12-14T05:51:00.609Z,1005.25
2023-12-14T05:52:00.596Z,1005.27
2023-12-14T05:53:00.587Z,1005.28
2023-12-14T05:54:00.577Z,1005.31
2023-12-14T05:55:04.699Z,1005.34
2023-12-14T05:56:00.670Z,1005.34
2023-12-14T05:57:00.524Z,1005.34
2023-12-14T05:58:00.522Z,1005.38
2023-12-14T05:59:00.658Z,1005.38
2023-12-14T06:00:00.582Z,1005.38
2023-12-14T06:01:00.598Z,1005.40
2023-12-14T06:02:00.777Z,1005.36
2023-12-14T06:03:00.653Z,1005.40
2023-12-14T06:04:00.533Z,1005.42
2023-12-14T06:05:00.462Z,1005.44
2023-12-14T06:06:00.463Z,1005.45
2023-12-14T06:07:00.409Z,1005.44
2023-12-14T06:08:00.467Z,1005.45
2023-12-14T06:09:00.417Z,1005.48
2023-12-14T06:10:00.466Z,1005.44
2023-12-14T06:11:00.514Z,1005.47
2023-12-14T06:12:00.429Z,1005.48
2023-12-14T06:13:00.439Z,1005.47
2023-12-14T06:14:00.356Z,1005.50
2023-12-14T06:15:00.368Z,1005.51
2023-12-14T06:16:00.325Z,1005.51
2023-12-14T06:17:00.456Z,1005.56
2023-12-14T06:18:00.503Z,1005.58
2023-12-14T06:19:00.438Z,1005.62
2023-12-14T06:20:00.413Z,1005.62
2023-12-14T06:21:00.306Z,1005.61
2023-12-14T06:22:00.307Z,1005.62
2023-12-14T06:23:00.274Z,1005.60
2023-12-14T06:24:00.364Z,1005.63
2023-12-14T06:25:00.286Z,1005.63
2023-12-14T06:26:00.378Z,1005.66
2023-12-14T06:27:00.511Z,1005.65
2023-12-14T06:28:00.197Z,1005.62
2023-12-14T06:29:00.275Z,1005.63
2023-12-14T06:30:00.216Z,1005.67
2023-12-14T06:31:00.243Z,1005.66
2023-12-14T06:32:00.188Z,1005.69
2023-12-14T06:33:00.288Z,1005.70
2023-12-14T06:34:01.340Z,1005.74
2023-12-14T06:35:00.181Z,1005.74
2023-12-14T06:36:00.085Z,1005.74
2023-12-14T06:37:00.094Z,1005.77
2023-12-14T06:38:00.111Z,1005.79
2023-12-14T06:39:00.075Z,1005.79
2023-12-14T06:40:00.058Z,1005.78
2023-12-14T06:41:00.178Z,1005.77
2023-12-14T06:42:00.074Z,1005.83
2023-12-14T06:43:00.034Z,1005.81
2023-12-14T06:44:00.039Z,1005.81
2023-12-14T06:44:59.991Z,1005.83
2023-12-14T06:46:00.008Z,1005.86
2023-12-14T06:47:00.059Z,1005.86
2023-12-14T06:47:59.986Z,1005.88
2023-12-14T06:49:00.195Z,1005.88
2023-12-14T06:50:00.252Z,1005.87
2023-12-14T06:50:59.979Z,1005.84
2023-12-14T06:52:00.059Z,1005.83
2023-12-14T06:53:00.036Z,1005.88
2023-12-14T06:53:59.942Z,1005.87
2023-12-14T06:54:59.968Z,1005.93
2023-12-14T06:55:59.939Z,1005.95
2023-12-14T06:56:59.940Z,1005.95
2023-12-14T06:57:59.865Z,1005.97
2023-12-14T06:58:59.879Z,1005.99
2023-12-14T06:59:59.823Z,1006.04
2023-12-14T07:00:59.906Z,1006.05
2023-12-14T07:01:59.880Z,1006.09
2023-12-14T07:02:59.806Z,1006.12
2023-12-14T07:03:59.808Z,1006.15
2023-12-14T07:04:59.807Z,1006.17
2023-12-14T07:05:59.834Z,1006.16
2023-12-14T07:06:59.864Z,1006.17
2023-12-14T07:07:59.834Z,1006.18
2023-12-14T07:08:59.731Z,1006.20
2023-12-14T07:09:59.766Z,1006.23
2023-12-14T07:10:59.805Z,1006.31
2023-12-14T07:11:59.756Z,1006.30
2023-12-14T07:12:59.693Z,1006.37
2023-12-14T07:13:59.680Z,1006.36
2023-12-14T07:14:59.699Z,1006.43
2023-12-14T07:15:59.641Z,1006.41
2023-12-14T07:16:59.793Z,1006.43
2023-12-14T07:17:59.743Z,1006.43
2023-12-14T07:18:59.742Z,1006.44
2023-12-14T07:20:00.822Z,1006.48
2023-12-14T07:20:59.613Z,1006.46
2023-12-14T07:21:59.621Z,1006.47
2023-12-14T07:22:59.614Z,1006.49
2023-12-14T07:23:59.587Z,1006.53
2023-12-14T07:25:00.372Z,1006.57
2023-12-14T07:26:02.372Z,1006.63
2023-12-14T07:26:59.593Z,1006.60
2023-12-14T07:27:59.627Z,1006.64
2023-12-14T07:28:59.610Z,1006.67
2023-12-14T07:29:59.650Z,1006.67
2023-12-14T07:30:59.610Z,1006.68
2023-12-14T07:31:59.579Z,1006.74
2023-12-14T07:32:59.557Z,1006.72
2023-12-14T07:33:59.509Z,1006.79
2023-12-14T07:34:59.519Z,1006.77
2023-12-14T07:35:59.479Z,1006.80
2023-12-14T07:36:59.568Z,1006.82
2023-12-14T07:37:59.487Z,1006.85
2023-12-14T07:38:59.468Z,1006.90
2023-12-14T07:39:59.439Z,1006.93
2023-12-14T07:40:59.449Z,1006.95
2023-12-14T07:41:59.404Z,1006.93
2023-12-14T07:42:59.389Z,1006.98
2023-12-14T07:44:00.194Z,1006.97
2023-12-14T07:44:59.361Z,1006.99
2023-12-14T07:45:59.344Z,1007.04
2023-12-14T07:46:59.448Z,1007.02
2023-12-14T07:47:59.449Z,1007.04
2023-12-14T07:48:59.471Z,1007.13
2023-12-14T07:49:59.314Z,1007.09
2023-12-14T07:51:00.373Z,1007.12
2023-12-14T07:51:59.265Z,1007.20
2023-12-14T07:52:59.330Z,1007.24
2023-12-14T07:53:59.322Z,1007.24
2023-12-14T07:54:59.301Z,1007.24
2023-12-14T07:55:59.234Z,1007.25
2023-12-14T07:56:59.278Z,1007.29
2023-12-14T07:57:59.216Z,1007.29
2023-12-14T07:58:59.268Z,1007.28
2023-12-14T07:59:59.168Z,1007.29
2023-12-14T08:00:59.221Z,1007.28
2023-12-14T08:01:59.188Z,1007.29
2023-12-14T08:02:59.211Z,1007.31
2023-12-14T08:03:59.253Z,1007.31
2023-12-14T08:04:59.209Z,1007.31
2023-12-14T08:05:59.188Z,1007.32
2023-12-14T08:06:59.123Z,1007.36
2023-12-14T08:07:59.194Z,1007.38
2023-12-14T08:08:59.225Z,1007.39
2023-12-14T08:09:59.068Z,1007.42
2023-12-14T08:10:59.108Z,1007.45
2023-12-14T08:11:59.085Z,1007.45
2023-12-14T08:12:59.025Z,1007.48
2023-12-14T08:13:59.225Z,1007.51
2023-12-14T08:14:59.003Z,1007.52
2023-12-14T08:15:59.058Z,1007.54
2023-12-14T08:16:59.043Z,1007.56
2023-12-14T08:17:59.132Z,1007.59
2023-12-14T08:18:59.008Z,1007.56
2023-12-14T08:19:58.986Z,1007.57
2023-12-14T08:20:58.993Z,1007.54
2023-12-14T08:21:58.978Z,1007.56
2023-12-14T08:22:59.024Z,1007.54
2023-12-14T08:23:58.939Z,1007.59
2023-12-14T08:24:58.969Z,1007.58
2023-12-14T08:25:58.960Z,1007.60
2023-12-14T08:26:58.901Z,1007.59
2023-12-14T08:27:59.711Z,1007.61
2023-12-14T08:28:58.890Z,1007.61
2023-12-14T08:29:59.001Z,1007.63
2023-12-14T08:30:58.872Z,1007.67
2023-12-14T08:31:58.873Z,1007.68
2023-12-14T08:32:58.909Z,1007.68
2023-12-14T08:33:58.917Z,1007.69
2023-12-14T08:34:58.839Z,1007.72
2023-12-14T08:35:58.819Z,1007.72
2023-12-14T08:36:58.808Z,1007.80
2023-12-14T08:37:59.091Z,1007.83
2023-12-14T08:38:58.767Z,1007.82
2023-12-14T08:39:58.816Z,1007.85
2023-12-14T08:40:58.783Z,1007.83
2023-12-14T08:41:58.740Z,1007.86
2023-12-14T08:42:58.808Z,1007.91
2023-12-14T08:43:58.730Z,1007.96
2023-12-14T08:44:58.682Z,1007.98
2023-12-14T08:45:58.757Z,1007.98
2023-12-14T08:46:58.705Z,1008.03
2023-12-14T08:47:58.681Z,1008.08
2023-12-14T08:48:58.695Z,1008.06
2023-12-14T08:49:58.659Z,1008.05
2023-12-14T08:50:58.636Z,1008.11
2023-12-14T08:51:58.618Z,1008.12
2023-12-14T08:52:58.652Z,1008.13
2023-12-14T08:53:58.588Z,1008.14
2023-12-14T08:54:58.582Z,1008.18
2023-12-14T08:55:58.606Z,1008.22
2023-12-14T08:56:58.628Z,1008.22
2023-12-14T08:57:58.588Z,1008.24
2023-12-14T08:58:58.602Z,1008.27
2023-12-14T08:59:58.651Z,1008.28
2023-12-14T09:00:58.643Z,1008.29
2023-12-14T09:01:58.654Z,1008.31
2023-12-14T09:02:58.666Z,1008.31
2023-12-14T09:03:58.516Z,1008.36
2023-12-14T09:04:58.601Z,1008.35
2023-12-14T09:05:58.641Z,1008.37
2023-12-14T09:06:58.535Z,1008.41
2023-12-14T09:07:58.559Z,1008.46
2023-12-14T09:08:58.499Z,1008.48
2023-12-14T09:09:58.452Z,1008.51
2023-12-14T09:10:58.475Z,1008.45
2023-12-14T09:11:58.460Z,1008.50
2023-12-14T09:12:58.424Z,1008.51
2023-12-14T09:13:58.512Z,1008.47
2023-12-14T09:14:58.439Z,1008.47
2023-12-14T09:15:58.350Z,1008.49
2023-12-14T09:16:58.544Z,1008.53
2023-12-14T09:17:58.490Z,1008.52
2023-12-14T09:18:58.400Z,1008.52
2023-12-14T09:19:58.357Z,1008.54
2023-12-14T09:20:58.347Z,1008.57
2023-12-14T09:21:58.319Z,1008.60
2023-12-14T09:22:58.408Z,1008.61
2023-12-14T09:23:58.424Z,1008.62
2023-12-14T09:24:58.262Z,1008.61
2023-12-14T09:25:58.338Z,1008.62
2023-12-14T09:26:58.277Z,1008.66
2023-12-14T09:27:58.454Z,1008.69
2023-12-14T09:28:58.509Z,1008.68
2023-12-14T09:29:58.567Z,1008.69
2023-12-14T09:30:58.309Z,1008.77
2023-12-14T09:31:58.550Z,1008.78
2023-12-14T09:32:58.391Z,1008.76
2023-12-14T09:33:58.349Z,1008.80
2023-12-14T09:34:58.270Z,1008.82
2023-12-14T09:35:58.206Z,1008.83
2023-12-14T09:36:59.647Z,1008.84
2023-12-14T09:37:58.177Z,1008.86
2023-12-14T09:38:58.127Z,1008.84
2023-12-14T09:39:58.091Z,1008.86
2023-12-14T09:40:58.121Z,1008.88
2023-12-14T09:41:58.062Z,1008.91
2023-12-14T09:42:58.160Z,1008.92
2023-12-14T09:43:58.170Z,1008.93
2023-12-14T09:44:58.084Z,1008.96
2023-12-14T09:45:58.063Z,1008.98
2023-12-14T09:46:58.117Z,1009.02
2023-12-14T09:47:58.167Z,1008.99
2023-12-14T09:48:58.115Z,1009.01
2023-12-14T09:49:58.099Z,1008.99
2023-12-14T09:50:57.987Z,1008.98
2023-12-14T09:51:58.073Z,1008.97
2023-12-14T09:52:58.025Z,1009.02
2023-12-14T09:53:57.984Z,1009.02
2023-12-14T09:54:57.971Z,1009.04
2023-12-14T09:55:57.943Z,1009.05
2023-12-14T09:56:58.028Z,1009.06
2023-12-14T09:57:57.941Z,1009.07
2023-12-14T09:58:57.965Z,1009.07
2023-12-14T09:59:57.961Z,1009.08
2023-12-14T10:00:58.071Z,1009.07
2023-12-14T10:01:57.917Z,1009.09
2023-12-14T10:02:57.985Z,1009.11
2023-12-14T10:03:57.936Z,1009.14
2023-12-14T10:04:57.953Z,1009.14
2023-12-14T10:05:58.039Z,1009.18
2023-12-14T10:06:57.805Z,1009.19
2023-12-14T10:07:57.938Z,1009.19
2023-12-14T10:08:57.801Z,1009.15
2023-12-14T10:09:57.827Z,1009.21
2023-12-14T10:10:57.775Z,1009.19
2023-12-14T10:11:57.804Z,1009.17
2023-12-14T10:12:57.765Z,1009.21
2023-12-14T10:13:57.763Z,1009.18
2023-12-14T10:14:57.769Z,1009.20
2023-12-14T10:15:57.748Z,1009.18
2023-12-14T10:17:03.267Z,1009.26
2023-12-14T10:17:58.771Z,1009.25
2023-12-14T10:18:57.880Z,1009.20
2023-12-14T10:19:57.722Z,1009.23
2023-12-14T10:20:57.668Z,1009.23
2023-12-14T10:21:57.632Z,1009.20
2023-12-14T10:22:57.757Z,1009.20
2023-12-14T10:23:57.673Z,1009.24
2023-12-14T10:24:57.613Z,1009.26
2023-12-14T10:25:57.636Z,1009.30
2023-12-14T10:26:57.596Z,1009.34
2023-12-14T10:27:57.575Z,1009.34
2023-12-14T10:28:57.626Z,1009.39
2023-12-14T10:29:57.598Z,1009.39
2023-12-14T10:30:57.608Z,1009.43
2023-12-14T10:31:57.580Z,1009.39
2023-12-14T10:32:57.628Z,1009.41
2023-12-14T10:33:57.622Z,1009.41
2023-12-14T10:34:57.539Z,1009.42
2023-12-14T10:35:57.535Z,1009.40
2023-12-14T10:36:57.484Z,1009.40
2023-12-14T10:37:58.335Z,1009.42
2023-12-14T10:38:57.444Z,1009.41
2023-12-14T10:39:57.568Z,1009.42
2023-12-14T10:40:57.480Z,1009.45
2023-12-14T10:42:00.808Z,1009.49
2023-12-14T10:42:58.459Z,1009.47
2023-12-14T10:44:17.909Z,1009.47
2023-12-14T10:45:12.210Z,1009.52
2023-12-14T10:45:58.714Z,1009.52
2023-12-14T10:46:57.472Z,1009.52
2023-12-14T10:47:57.413Z,1009.56
2023-12-14T10:48:58.066Z,1009.57
2023-12-14T10:49:57.394Z,1009.56
2023-12-14T10:50:57.430Z,1009.57
2023-12-14T10:51:57.360Z,1009.62
2023-12-14T10:52:57.343Z,1009.62
2023-12-14T10:53:57.283Z,1009.60
2023-12-14T10:54:57.281Z,1009.61
2023-12-14T10:55:57.382Z,1009.65
2023-12-14T10:56:57.357Z,1009.64
2023-12-14T10:57:57.334Z,1009.66
2023-12-14T10:58:57.318Z,1009.66
2023-12-14T10:59:57.279Z,1009.67
2023-12-14T11:00:57.280Z,1009.67
2023-12-14T11:01:57.240Z,1009.66
2023-12-14T11:02:57.235Z,1009.71
2023-12-14T11:03:57.256Z,1009.67
2023-12-14T11:04:57.316Z,1009.72
2023-12-14T11:06:06.945Z,1009.75
2023-12-14T11:06:58.212Z,1009.76
2023-12-14T11:07:57.213Z,1009.77
2023-12-14T11:08:57.201Z,1009.72
2023-12-14T11:09:57.303Z,1009.77
2023-12-14T11:10:57.414Z,1009.82
2023-12-14T11:11:57.323Z,1009.79
2023-12-14T11:12:57.107Z,1009.81
2023-12-14T11:13:57.127Z,1009.84
2023-12-14T11:14:57.125Z,1009.84
2023-12-14T11:15:57.114Z,1009.87
2023-12-14T11:16:57.103Z,1009.89
2023-12-14T11:17:57.255Z,1009.89
2023-12-14T11:18:57.268Z,1009.91
2023-12-14T11:19:57.115Z,1009.92
2023-12-14T11:20:57.039Z,1009.92
2023-12-14T11:21:57.024Z,1009.92
2023-12-14T11:22:57.052Z,1009.88
2023-12-14T11:23:57.000Z,1009.81
2023-12-14T11:24:56.985Z,1009.89
2023-12-14T11:25:59.396Z,1009.88
2023-12-14T11:26:57.025Z,1009.80
2023-12-14T11:27:56.927Z,1009.90
2023-12-14T11:28:56.997Z,1009.86
2023-12-14T11:29:56.893Z,1009.93
2023-12-14T11:30:57.723Z,1009.92
2023-12-14T11:31:56.894Z,1009.95
2023-12-14T11:32:59.035Z,1009.96
2023-12-14T11:33:56.935Z,1009.97
2023-12-14T11:34:56.891Z,1010.00
2023-12-14T11:35:57.004Z,1009.96
2023-12-14T11:36:56.868Z,1009.99
2023-12-14T11:37:56.811Z,1010.04
2023-12-14T11:38:57.553Z,1010.05
2023-12-14T11:39:57.191Z,1010.03
2023-12-14T11:40:56.797Z,1010.07
2023-12-14T11:41:56.769Z,1010.04
2023-12-14T11:42:56.754Z,1010.05
2023-12-14T11:43:56.897Z,1010.10
2023-12-14T11:44:56.893Z,1010.08
2023-12-14T11:45:56.826Z,1010.08
2023-12-14T11:46:56.799Z,1010.10
2023-12-14T11:47:56.778Z,1010.05
2023-12-14T11:48:56.731Z,1010.05
2023-12-14T11:49:57.083Z,1010.08
2023-12-14T11:50:56.787Z,1010.12
2023-12-14T11:51:56.796Z,1010.11
2023-12-14T11:52:56.724Z,1010.12
2023-12-14T11:53:56.852Z,1010.14
2023-12-14T11:54:56.686Z,1010.16
2023-12-14T11:55:56.656Z,1010.14
2023-12-14T11:56:56.683Z,1010.18
2023-12-14T11:57:56.759Z,1010.18
2023-12-14T11:58:56.738Z,1010.21
2023-12-14T11:59:56.801Z,1010.23
2023-12-14T12:00:56.787Z,1010.25
2023-12-14T12:01:56.651Z,1010.27
2023-12-14T12:02:56.572Z,1010.30
2023-12-14T12:03:56.571Z,1010.29
2023-12-14T12:04:56.597Z,1010.33